Time;durP1;ratioP1;P1;durP2;ratioP2;P2;SDS_P1;SDS_P2;PMS_P1;PMS_P2;Temp;Humidity;BMP_temperature;BMP_pressure;BME280_temperature;BME280_humidity;BME280_pressure;Samples;Min_cycle;Max_cycle;Signal;HPM_P1;HPM_P2
2023/04/08 00:00:23;;;;;;;;;8.50;8.00;;;;;-147.17;100.00;-15915.72;4991707;28;53479;-53
2023/04/08 00:02:48;;;;;;;;;10.00;9.25;;;;;-147.17;100.00;-15917.19;4989324;28;51136;-53
2023/04/08 00:05:14;;;;;;;;;5.50;5.00;;;;;-147.17;100.00;-15917.19;4993311;28;51233;-52
2023/04/08 00:07:40;;;;;;;;;8.25;8.00;;;;;-147.17;100.00;-15917.19;4992325;28;51245;-55
2023/04/08 00:10:06;;;;;;;;;7.25;7.25;;;;;-147.17;100.00;-15917.19;4992486;28;51086;-55
2023/04/08 00:12:32;;;;;;;;;7.75;6.50;;;;;-147.17;100.00;-15917.19;4990952;28;51253;-57
2023/04/08 00:14:57;;;;;;;;;7.50;7.50;;;;;-147.17;100.00;-15917.19;4991623;28;51301;-55
2023/04/08 00:17:22;;;;;;;;;6.75;5.25;;;;;-147.17;100.00;-15917.19;4987458;28;51285;-54
2023/04/08 00:19:48;;;;;;;;;7.00;7.00;;;;;-147.17;100.00;-15917.19;4991012;28;51792;-55
2023/04/08 00:22:13;;;;;;;;;8.50;6.25;;;;;-147.17;100.00;-15917.19;4987085;28;51240;-54
2023/04/08 00:24:39;;;;;;;;;8.75;8.50;;;;;-147.17;100.00;-15917.19;4991305;28;51056;-56
2023/04/08 00:27:05;;;;;;;;;8.25;7.75;;;;;-147.17;100.00;-15917.19;4992459;28;51130;-55
2023/04/08 00:29:31;;;;;;;;;7.00;6.00;;;;;-147.17;100.00;-15917.19;4991985;28;52179;-54
2023/04/08 00:31:56;;;;;;;;;10.00;8.00;;;;;-147.17;100.00;-15917.19;4985452;28;51326;-55
2023/04/08 00:34:21;;;;;;;;;9.50;8.75;;;;;-147.17;100.00;-15917.19;4984830;28;51175;-62
2023/04/08 00:36:47;;;;;;;;;11.25;10.50;;;;;-147.17;100.00;-15917.19;4992244;28;51377;-54
2023/04/08 00:39:13;;;;;;;;;5.25;4.75;;;;;-147.17;100.00;-15917.19;4974789;28;52613;-56
2023/04/08 00:41:38;;;;;;;;;8.50;8.00;;;;;-147.17;100.00;-15917.19;4985711;28;50941;-55
2023/04/08 00:44:04;;;;;;;;;9.25;8.00;;;;;-147.17;100.00;-15917.19;4991435;28;51285;-55
2023/04/08 00:46:35;;;;;;;;;10.75;8.75;;;;;-147.17;100.00;-15917.19;4990107;28;51195;-56
2023/04/08 00:49:01;;;;;;;;;9.75;5.25;;;;;-147.17;100.00;-15917.19;4990285;28;52170;-56
2023/04/08 00:51:28;;;;;;;;;9.25;8.00;;;;;-147.17;100.00;-15917.19;4974140;28;50978;-55
2023/04/08 00:53:53;;;;;;;;;7.50;6.00;;;;;-147.17;100.00;-15917.19;4973226;28;50911;-55
2023/04/08 00:56:20;;;;;;;;;8.50;8.00;;;;;-147.17;100.00;-15917.19;4988806;28;51146;-56
2023/04/08 00:58:46;;;;;;;;;10.00;10.00;;;;;-147.17;100.00;-15917.19;4986448;28;51915;-56
2023/04/08 01:01:25;;;;;;;;;10.00;10.00;;;;;-147.17;100.00;-15917.19;4991789;28;50971;-55
2023/04/08 01:03:56;;;;;;;;;8.75;8.75;;;;;-147.17;100.00;-15917.19;4984466;28;51138;-56
2023/04/08 01:06:34;;;;;;;;;7.75;6.25;;;;;-147.17;100.00;-15917.19;4973189;28;51130;-56
2023/04/08 01:09:04;;;;;;;;;8.00;7.00;;;;;-147.17;100.00;-15917.19;4983733;28;51101;-55
2023/04/08 01:11:33;;;;;;;;;9.00;8.25;;;;;-147.17;100.00;-15917.19;4991775;28;51107;-54
2023/04/08 01:14:04;;;;;;;;;8.25;8.00;;;;;-147.17;100.00;-15917.19;4990091;28;50972;-55
2023/04/08 01:16:29;;;;;;;;;8.00;7.25;;;;;-147.17;100.00;-15917.19;4990559;28;51114;-54
2023/04/08 01:18:55;;;;;;;;;9.00;8.25;;;;;-147.17;100.00;-15917.19;4989289;28;51642;-55
2023/04/08 01:21:22;;;;;;;;;7.50;7.50;;;;;-147.17;100.00;-15917.19;4990853;28;51079;-54
2023/04/08 01:24:09;;;;;;;;;8.00;7.75;;;;;-147.17;100.00;-15917.19;4977450;28;50946;-55
2023/04/08 01:26:34;;;;;;;;;9.00;9.00;;;;;-147.17;100.00;-15917.19;4992364;28;51081;-54
2023/04/08 01:29:02;;;;;;;;;9.50;8.00;;;;;-147.17;100.00;-15917.19;4991280;28;51630;-55
2023/04/08 01:31:29;;;;;;;;;8.75;8.25;;;;;-147.17;100.00;-15917.19;4983317;28;50983;-55
2023/04/08 01:33:56;;;;;;;;;2.75;2.75;;;;;-147.17;100.00;-15917.19;4988119;28;51114;-55
2023/04/08 01:36:25;;;;;;;;;7.25;7.00;;;;;-147.17;100.00;-15917.19;4992841;28;51376;-55
2023/04/08 01:38:50;;;;;;;;;7.75;7.50;;;;;-147.17;100.00;-15917.19;4991141;28;52057;-55
2023/04/08 01:41:18;;;;;;;;;9.00;8.25;;;;;-147.17;100.00;-15917.19;4990446;28;51256;-54
2023/04/08 01:43:44;;;;;;;;;7.00;6.00;;;;;-147.17;100.00;-15917.19;4991578;28;51157;-55
2023/04/08 01:46:12;;;;;;;;;9.50;8.25;;;;;-147.17;100.00;-15917.19;4979344;28;51298;-53
2023/04/08 01:48:39;;;;;;;;;10.00;9.00;;;;;-147.17;100.00;-15917.19;4980058;28;51316;-55
2023/04/08 01:51:05;;;;;;;;;7.00;5.00;;;;;-147.17;100.00;-15917.19;4990051;28;51126;-55
2023/04/08 01:53:32;;;;;;;;;8.00;8.00;;;;;-147.17;100.00;-15917.19;4989414;28;51156;-55
2023/04/08 01:56:04;;;;;;;;;10.00;9.00;;;;;-147.17;100.00;-15917.19;4991251;28;50962;-55
2023/04/08 01:58:36;;;;;;;;;8.50;8.00;;;;;-147.17;100.00;-15917.19;4989189;28;51656;-56
2023/04/08 02:01:04;;;;;;;;;10.75;10.00;;;;;-147.17;100.00;-15917.19;4978846;28;51243;-56
2023/04/08 02:03:31;;;;;;;;;9.50;7.75;;;;;-147.17;100.00;-15917.19;4992861;28;51040;-56
2023/04/08 02:05:56;;;;;;;;;9.50;9.25;;;;;-147.17;100.00;-15917.19;4992538;28;51368;-53
2023/04/08 02:08:22;;;;;;;;;6.75;4.50;;;;;-147.17;100.00;-15917.19;4989302;28;50973;-57
2023/04/08 02:10:47;;;;;;;;;10.00;9.00;;;;;-147.17;100.00;-15917.19;4974733;28;54505;-55
2023/04/08 02:13:12;;;;;;;;;8.75;7.75;;;;;-147.17;100.00;-15917.19;4989242;28;51098;-56
2023/04/08 02:15:45;;;;;;;;;8.50;8.00;;;;;-147.17;100.00;-15917.19;4984600;28;51205;-54
2023/04/08 02:18:23;;;;;;;;;9.75;9.00;;;;;-147.17;100.00;-15917.19;4993133;28;52007;-55
2023/04/08 02:21:13;;;;;;;;;8.00;8.00;;;;;-147.17;100.00;-15917.19;4989451;28;51210;-53
2023/04/08 02:23:41;;;;;;;;;9.50;9.50;;;;;-147.17;100.00;-15917.19;4990999;28;51153;-55
2023/04/08 02:26:15;;;;;;;;;9.00;9.00;;;;;-147.17;100.00;-15917.19;4994267;28;51074;-56
2023/04/08 02:28:41;;;;;;;;;10.00;9.00;;;;;-147.17;100.00;-15917.19;4992347;28;51068;-56
2023/04/08 02:31:12;;;;;;;;;10.50;8.75;;;;;-147.17;100.00;-15917.19;4991211;28;51366;-56
2023/04/08 02:33:39;;;;;;;;;10.25;9.00;;;;;-147.17;100.00;-15917.19;4977100;28;51047;-55
2023/04/08 02:36:05;;;;;;;;;11.00;10.00;;;;;-147.17;100.00;-15917.19;4985448;28;51551;-55
2023/04/08 02:38:31;;;;;;;;;9.00;7.75;;;;;-147.17;100.00;-15917.19;4984166;28;51115;-55
2023/04/08 02:40:57;;;;;;;;;11.50;10.75;;;;;-147.17;100.00;-15917.19;4992935;28;50904;-55
2023/04/08 02:43:30;;;;;;;;;11.50;10.00;;;;;-147.17;100.00;-15917.19;4992700;28;51003;-53
2023/04/08 02:45:56;;;;;;;;;8.50;8.00;;;;;-147.17;100.00;-15917.19;4992308;28;51203;-55
2023/04/08 02:48:21;;;;;;;;;9.00;8.75;;;;;-147.17;100.00;-15917.19;4994069;28;52803;-54
2023/04/08 02:50:46;;;;;;;;;10.50;10.00;;;;;-147.17;100.00;-15917.19;4993886;28;50981;-56
2023/04/08 02:53:12;;;;;;;;;7.50;7.50;;;;;-147.17;100.00;-15917.19;4980351;28;50896;-53
2023/04/08 02:55:38;;;;;;;;;10.00;9.00;;;;;-147.17;100.00;-15917.19;4994619;28;51066;-56
2023/04/08 02:58:03;;;;;;;;;8.50;8.50;;;;;-147.17;100.00;-15917.19;4988019;28;53161;-55
2023/04/08 03:00:29;;;;;;;;;10.00;9.00;;;;;-147.17;100.00;-15917.19;4982550;28;50988;-54
2023/04/08 03:02:54;;;;;;;;;11.50;9.00;;;;;-147.17;100.00;-15917.19;4988181;28;51207;-54
2023/04/08 03:05:20;;;;;;;;;9.75;9.00;;;;;-147.17;100.00;-15917.19;4977529;28;51558;-56
2023/04/08 03:07:45;;;;;;;;;16.00;12.00;;;;;-147.17;100.00;-15917.19;4992780;28;51067;-56
2023/04/08 03:10:11;;;;;;;;;12.75;11.50;;;;;-147.17;100.00;-15917.19;4988665;28;51003;-55
2023/04/08 03:12:36;;;;;;;;;13.25;11.00;;;;;-147.17;100.00;-15917.19;4990386;28;51047;-55
2023/04/08 03:15:02;;;;;;;;;11.75;11.75;;;;;-147.17;100.00;-15917.19;4981057;28;51205;-55
2023/04/08 03:17:28;;;;;;;;;14.00;11.25;;;;;-147.17;100.00;-15917.19;4990657;28;51280;-56
2023/04/08 03:19:54;;;;;;;;;14.00;12.75;;;;;-147.17;100.00;-15917.19;4978356;28;51188;-54
2023/04/08 03:22:19;;;;;;;;;10.50;9.00;;;;;-147.17;100.00;-15917.19;4992124;28;51024;-56
2023/04/08 03:24:44;;;;;;;;;12.75;10.75;;;;;-147.17;100.00;-15917.19;4974352;28;51390;-54
2023/04/08 03:27:11;;;;;;;;;13.00;12.75;;;;;-147.17;100.00;-15917.19;4986232;28;53736;-54
2023/04/08 03:29:37;;;;;;;;;14.50;12.50;;;;;-147.17;100.00;-15917.19;4992715;28;51067;-53
2023/04/08 03:32:02;;;;;;;;;12.25;11.75;;;;;-147.17;100.00;-15917.19;4993326;28;51012;-55
2023/04/08 03:34:27;;;;;;;;;7.75;7.00;;;;;-147.17;100.00;-15917.19;4973378;28;51324;-55
2023/04/08 03:36:53;;;;;;;;;15.50;14.00;;;;;-147.17;100.00;-15917.19;4989559;28;58424;-56
2023/04/08 03:39:18;;;;;;;;;11.75;10.75;;;;;-147.17;100.00;-15917.19;4992889;28;51023;-55
2023/04/08 03:41:44;;;;;;;;;13.00;10.50;;;;;-147.17;100.00;-15917.19;4990581;28;51206;-55
2023/04/08 03:44:09;;;;;;;;;13.00;11.25;;;;;-147.17;100.00;-15917.19;4979063;28;51021;-56
2023/04/08 03:46:34;;;;;;;;;10.00;10.00;;;;;-147.17;100.00;-15917.19;4992683;28;52826;-55
2023/04/08 03:49:00;;;;;;;;;14.00;13.50;;;;;-147.17;100.00;-15917.19;4987188;28;51128;-56
2023/04/08 03:51:27;;;;;;;;;10.25;9.75;;;;;-147.17;100.00;-15917.19;4976077;28;51122;-55
2023/04/08 03:53:52;;;;;;;;;12.75;11.75;;;;;-147.17;100.00;-15917.19;4983097;28;51414;-56
2023/04/08 03:56:18;;;;;;;;;13.25;13.25;;;;;-147.17;100.00;-15917.19;4991848;28;51842;-55
2023/04/08 03:58:43;;;;;;;;;12.25;10.75;;;;;-147.17;100.00;-15917.19;4989572;28;51040;-54
2023/04/08 04:01:08;;;;;;;;;12.75;10.00;;;;;-147.17;100.00;-15917.19;4983051;28;51510;-56
2023/04/08 04:03:33;;;;;;;;;13.00;11.00;;;;;-147.17;100.00;-15917.19;4989007;28;51253;-55
2023/04/08 04:05:59;;;;;;;;;15.00;13.00;;;;;-147.17;100.00;-15917.19;4978918;28;51052;-55
2023/04/08 04:08:24;;;;;;;;;14.25;13.25;;;;;-147.17;100.00;-15917.19;4977801;28;51118;-56
2023/04/08 04:10:50;;;;;;;;;13.75;10.75;;;;;-147.17;100.00;-15917.19;4991279;28;51340;-54
2023/04/08 04:13:15;;;;;;;;;8.00;7.00;;;;;-147.17;100.00;-15917.19;4991759;28;50926;-54
2023/04/08 04:15:41;;;;;;;;;13.25;9.75;;;;;-147.17;100.00;-15917.19;4991536;28;51798;-54
2023/04/08 04:18:07;;;;;;;;;14.00;9.25;;;;;-147.17;100.00;-15917.19;4988421;28;51373;-54
2023/04/08 04:20:32;;;;;;;;;11.25;11.25;;;;;-147.17;100.00;-15917.19;4973201;28;51101;-56
2023/04/08 04:22:57;;;;;;;;;13.75;10.25;;;;;-147.17;100.00;-15917.19;4981184;28;51441;-55
2023/04/08 04:25:23;;;;;;;;;13.75;12.75;;;;;-147.17;100.00;-15917.19;4973828;28;51708;-57
2023/04/08 04:27:48;;;;;;;;;17.75;14.50;;;;;-147.17;100.00;-15917.19;4991727;28;51107;-56
2023/04/08 04:30:14;;;;;;;;;15.00;14.00;;;;;-147.17;100.00;-15917.19;4992211;28;51231;-55
2023/04/08 04:32:43;;;;;;;;;10.00;10.00;;;;;-147.17;100.00;-15917.19;4988909;28;51083;-55
2023/04/08 04:35:09;;;;;;;;;14.75;13.00;;;;;-147.17;100.00;-15917.19;4992482;28;51822;-54
2023/04/08 04:37:35;;;;;;;;;12.00;10.50;;;;;-147.17;100.00;-15917.19;4991062;28;51158;-55
2023/04/08 04:40:01;;;;;;;;;12.00;10.00;;;;;-147.17;100.00;-15917.19;4973441;28;51094;-54
2023/04/08 04:42:26;;;;;;;;;12.50;12.50;;;;;-147.17;100.00;-15917.19;4984226;28;51013;-54
2023/04/08 04:44:52;;;;;;;;;12.25;12.25;;;;;-147.17;100.00;-15917.19;4989285;28;51316;-56
2023/04/08 04:47:18;;;;;;;;;11.75;10.00;;;;;-147.17;100.00;-15917.19;4980168;28;50985;-55
2023/04/08 04:49:44;;;;;;;;;11.50;10.25;;;;;-147.17;100.00;-15917.19;4982340;28;51206;-55
2023/04/08 04:52:09;;;;;;;;;12.75;12.00;;;;;-147.17;100.00;-15917.19;4988425;28;51181;-55
2023/04/08 04:54:35;;;;;;;;;13.75;12.75;;;;;-147.17;100.00;-15917.19;4989888;28;51912;-55
2023/04/08 04:57:00;;;;;;;;;12.25;12.25;;;;;-147.17;100.00;-15917.19;4991118;28;51050;-55
2023/04/08 04:59:26;;;;;;;;;12.50;11.25;;;;;-147.17;100.00;-15917.19;4989120;28;51123;-55
2023/04/08 05:01:51;;;;;;;;;10.75;9.00;;;;;-147.17;100.00;-15917.19;4984422;28;51420;-54
2023/04/08 05:04:17;;;;;;;;;13.50;12.50;;;;;-147.17;100.00;-15917.19;4988475;28;54409;-55
2023/04/08 05:06:42;;;;;;;;;15.25;13.00;;;;;-147.17;100.00;-15917.19;4983329;28;51028;-53
2023/04/08 05:09:07;;;;;;;;;18.00;13.00;;;;;-147.17;100.00;-15917.19;4982087;28;52408;-56
2023/04/08 05:11:32;;;;;;;;;12.50;12.50;;;;;-147.17;100.00;-15917.19;4983588;28;51083;-58
2023/04/08 05:13:58;;;;;;;;;12.25;10.75;;;;;-147.17;100.00;-15917.19;4987729;28;58544;-57
2023/04/08 05:16:23;;;;;;;;;14.75;13.00;;;;;-147.17;100.00;-15917.19;4989713;28;59964;-55
2023/04/08 05:18:48;;;;;;;;;12.50;12.50;;;;;-147.17;100.00;-15917.19;4987015;28;50976;-53
2023/04/08 05:21:14;;;;;;;;;13.25;12.00;;;;;-147.17;100.00;-15917.19;4983619;28;51099;-55
2023/04/08 05:23:39;;;;;;;;;15.25;14.25;;;;;-147.17;100.00;-15917.19;4985666;28;51123;-54
2023/04/08 05:26:07;;;;;;;;;12.00;12.00;;;;;-147.17;100.00;-15917.19;4990995;28;51008;-54
2023/04/08 05:28:33;;;;;;;;;14.25;14.25;;;;;-147.17;100.00;-15917.19;4990099;28;51068;-55
2023/04/08 05:30:59;;;;;;;;;13.75;12.25;;;;;-147.17;100.00;-15917.19;4991053;28;51258;-56
2023/04/08 05:33:25;;;;;;;;;13.50;12.75;;;;;-147.17;100.00;-15917.19;4991023;28;51588;-55
2023/04/08 05:35:51;;;;;;;;;16.75;13.25;;;;;-147.17;100.00;-15917.19;4997613;28;51185;-56
2023/04/08 05:38:17;;;;;;;;;15.50;13.25;;;;;-147.17;100.00;-15917.19;4981662;28;51341;-55
2023/04/08 05:40:42;;;;;;;;;14.00;14.00;;;;;-147.17;100.00;-15917.19;4983921;28;51161;-56
2023/04/08 05:43:07;;;;;;;;;12.00;11.00;;;;;-147.17;100.00;-15917.19;4993811;28;51752;-54
2023/04/08 05:45:33;;;;;;;;;20.50;19.50;;;;;-147.17;100.00;-15917.19;4988645;28;51071;-54
2023/04/08 05:47:58;;;;;;;;;14.50;13.00;;;;;-147.17;100.00;-15917.19;4975886;28;51074;-54
2023/04/08 05:50:23;;;;;;;;;15.50;15.50;;;;;-147.17;100.00;-15917.19;4993216;28;51154;-55
2023/04/08 05:52:49;;;;;;;;;13.50;12.75;;;;;-147.17;100.00;-15917.19;5009714;28;51765;-55
2023/04/08 05:55:14;;;;;;;;;15.25;13.75;;;;;-147.17;100.00;-15917.19;4991380;28;50994;-54
2023/04/08 05:57:40;;;;;;;;;14.25;13.25;;;;;-147.17;100.00;-15917.19;4983909;28;51214;-56
2023/04/08 06:00:08;;;;;;;;;18.25;17.00;;;;;-147.17;100.00;-15917.19;4991892;28;50839;-54
2023/04/08 06:02:35;;;;;;;;;13.25;13.25;;;;;-147.17;100.00;-15917.19;4979732;28;51798;-55
2023/04/08 06:05:00;;;;;;;;;16.50;15.25;;;;;-147.17;100.00;-15917.19;4984374;28;51040;-55
2023/04/08 06:07:26;;;;;;;;;18.00;15.50;;;;;-147.17;100.00;-15917.19;4983627;28;51133;-54
2023/04/08 06:09:51;;;;;;;;;29.00;27.75;;;;;-147.17;100.00;-15917.19;4983690;28;51017;-55
2023/04/08 06:12:16;;;;;;;;;12.50;11.50;;;;;-147.17;100.00;-15917.19;4984860;28;51891;-57
2023/04/08 06:14:42;;;;;;;;;16.25;15.00;;;;;-147.17;100.00;-15917.19;4990017;28;51181;-56
2023/04/08 06:17:07;;;;;;;;;14.25;14.25;;;;;-147.17;100.00;-15917.19;4991042;28;51020;-55
2023/04/08 06:19:33;;;;;;;;;15.50;12.50;;;;;-147.17;100.00;-15917.19;4979562;28;50937;-55
2023/04/08 06:21:59;;;;;;;;;16.25;15.00;;;;;-147.17;100.00;-15917.19;4982903;28;53415;-55
2023/04/08 06:24:26;;;;;;;;;14.75;14.25;;;;;-147.17;100.00;-15917.19;4992615;28;50996;-55
2023/04/08 06:26:52;;;;;;;;;13.25;12.50;;;;;-147.17;100.00;-15917.19;4991492;28;51199;-56
2023/04/08 06:29:17;;;;;;;;;13.50;13.00;;;;;-147.17;100.00;-15172.50;4981861;28;51155;-55
2023/04/08 06:31:43;;;;;;;;;14.50;13.00;;;;;-147.17;100.00;-13437.75;4991788;28;52011;-55
2023/04/08 06:34:08;;;;;;;;;17.75;16.25;;;;;-147.17;100.00;-10958.19;4991962;28;51062;-54
2023/04/08 06:36:33;;;;;;;;;16.00;16.00;;;;;-147.17;100.00;-8228.81;4988704;28;51207;-54
2023/04/08 06:38:59;;;;;;;;;11.75;11.00;;;;;-147.17;100.00;-5249.09;4991077;28;51058;-55
2023/04/08 06:41:24;;;;;;;;;14.00;13.00;;;;;-147.17;100.00;-1521.19;4988591;28;51274;-55
2023/04/08 06:43:50;;;;;;;;;19.00;16.75;;;;;-147.17;100.00;1961.44;4989790;28;51015;-54
2023/04/08 06:46:15;;;;;;;;;19.00;18.75;;;;;-147.17;100.00;4450.97;4991016;28;51386;-55
2023/04/08 06:48:40;;;;;;;;;20.25;19.00;;;;;-147.17;100.00;6443.75;4982934;28;51218;-55
2023/04/08 06:51:06;;;;;;;;;16.75;16.75;;;;;-147.17;100.00;10681.81;4982874;28;52136;-57
2023/04/08 06:53:32;;;;;;;;;18.25;18.25;;;;;-147.17;100.00;19421.84;4990684;28;51417;-55
2023/04/08 06:55:58;;;;;;;;;19.25;17.25;;;;;-147.17;100.00;25355.94;4989841;28;51239;-55
2023/04/08 06:58:23;;;;;;;;;20.50;19.75;;;;;-147.17;100.00;25265.97;4991348;28;51328;-55
2023/04/08 07:00:48;;;;;;;;;15.50;15.00;;;;;-147.17;100.00;28244.16;4988013;28;52617;-55
2023/04/08 07:03:14;;;;;;;;;17.75;16.75;;;;;-147.17;100.00;27686.31;4999823;28;51170;-54
2023/04/08 07:05:41;;;;;;;;;17.00;15.25;;;;;-147.17;100.00;29589.22;4992964;28;51651;-54
2023/04/08 07:08:06;;;;;;;;;19.00;18.00;;;;;-147.17;100.00;31361.78;4987953;28;51016;-55
2023/04/08 07:10:33;;;;;;;;;16.50;15.50;;;;;-147.17;100.00;30875.97;4990344;28;51107;-54
2023/04/08 07:12:58;;;;;;;;;16.50;15.00;;;;;-147.17;100.00;35568.22;4992089;28;51053;-53
2023/04/08 07:15:24;;;;;;;;;15.00;15.00;;;;;-147.17;100.00;35589.78;4979670;28;51506;-55
2023/04/08 07:17:50;;;;;;;;;14.75;14.75;;;;;-147.17;100.00;37292.47;4991889;28;51731;-55
2023/04/08 07:20:15;;;;;;;;;17.75;17.25;;;;;-147.17;100.00;38201.00;4987771;28;51143;-55
2023/04/08 07:22:41;;;;;;;;;16.33;15.33;;;;;-147.17;100.00;39516.09;4980485;28;50952;-57
2023/04/08 07:25:07;;;;;;;;;15.25;14.25;;;;;-147.17;100.00;41047.66;4991678;28;51574;-55
2023/04/08 07:27:33;;;;;;;;;17.25;16.50;;;;;-147.17;100.00;41228.34;4991777;28;51187;-54
2023/04/08 07:29:58;;;;;;;;;15.33;15.00;;;;;-147.17;100.00;42004.19;4990366;28;53438;-55
2023/04/08 07:32:24;;;;;;;;;17.00;17.00;;;;;-147.17;100.00;42194.75;4993429;28;51080;-55
2023/04/08 07:34:49;;;;;;;;;18.25;16.50;;;;;-147.17;100.00;41797.94;4989260;28;51018;-57
2023/04/08 07:37:15;;;;;;;;;15.00;14.00;;;;;-147.17;100.00;41964.91;4983562;28;51446;-56
2023/04/08 07:39:40;;;;;;;;;18.00;17.33;;;;;-147.17;100.00;42367.63;4980418;28;52769;-56
2023/04/08 07:42:06;;;;;;;;;16.00;16.00;;;;;-147.17;100.00;42377.44;4991476;28;51050;-56
2023/04/08 07:44:31;;;;;;;;;15.33;15.00;;;;;-147.17;100.00;42917.75;4991680;28;51376;-56
2023/04/08 07:46:56;;;;;;;;;22.00;19.00;;;;;-147.17;100.00;42795.94;4988009;28;51663;-55
2023/04/08 07:49:22;;;;;;;;;19.00;18.00;;;;;-147.17;100.00;43112.28;4985562;28;52379;-56
2023/04/08 07:51:47;;;;;;;;;18.67;17.67;;;;;-147.17;100.00;43462.06;4979610;28;51017;-54
2023/04/08 07:54:16;;;;;;;;;21.00;17.00;;;;;-147.17;100.00;43540.66;4983602;28;51013;-56
2023/04/08 07:56:44;;;;;;;;;14.00;13.00;;;;;-147.17;100.00;43352.00;4987582;28;51170;-55
2023/04/08 07:59:10;;;;;;;;;20.33;19.00;;;;;-147.17;100.00;43053.31;4973126;28;51871;-56
2023/04/08 08:01:36;;;;;;;;;15.00;15.00;;;;;-147.17;100.00;42778.25;4977524;28;51065;-54
2023/04/08 08:04:03;;;;;;;;;19.00;18.00;;;;;-147.17;100.00;42672.16;4992834;28;51252;-55
2023/04/08 08:06:28;;;;;;;;;16.75;16.50;;;;;-147.17;100.00;42666.25;4986079;28;51090;-55
2023/04/08 08:08:54;;;;;;;;;16.50;16.50;;;;;-147.17;100.00;42762.53;4983067;28;51898;-54
2023/04/08 08:11:21;;;;;;;;;18.75;17.75;;;;;-147.17;100.00;42599.47;4972353;28;51423;-56
2023/04/08 08:13:46;;;;;;;;;21.33;20.67;;;;;-147.17;100.00;42562.13;4991439;28;51227;-57
2023/04/08 08:16:12;;;;;;;;;19.25;19.00;;;;;-147.17;100.00;42383.34;4989634;28;51088;-57
2023/04/08 08:18:38;;;;;;;;;16.75;16.75;;;;;-147.17;100.00;42377.44;4971914;28;51112;-57
2023/04/08 08:21:04;;;;;;;;;19.00;18.50;;;;;-147.17;100.00;42220.28;4972742;28;51064;-56
2023/04/08 08:23:30;;;;;;;;;22.50;21.00;;;;;-147.17;100.00;42116.16;4985354;28;51086;-57
2023/04/08 08:26:08;;;;;;;;;18.33;18.33;;;;;-147.17;100.00;42210.47;4988602;28;51188;-56
2023/04/08 08:28:34;;;;;;;;;19.00;17.00;;;;;-147.17;100.00;42167.25;4991666;28;51054;-56
2023/04/08 08:30:59;;;;;;;;;19.00;18.75;;;;;-147.17;100.00;42406.91;4992137;28;51026;-57
2023/04/08 08:33:25;;;;;;;;;22.33;21.00;;;;;-147.17;100.00;42646.63;4981580;28;51351;-57
2023/04/08 08:35:51;;;;;;;;;20.00;19.33;;;;;-147.17;100.00;43483.66;4983424;28;51036;-57
2023/04/08 08:38:16;;;;;;;;;18.00;18.00;;;;;-147.17;100.00;44226.56;4981025;28;55976;-57
2023/04/08 08:40:43;;;;;;;;;18.00;17.00;;;;;-147.17;100.00;44969.59;4988648;28;51378;-57
2023/04/08 08:43:10;;;;;;;;;14.00;13.50;;;;;-147.17;100.00;44812.31;4981148;28;51163;-58
2023/04/08 08:45:42;;;;;;;;;17.00;16.67;;;;;-147.17;100.00;44519.44;4990277;28;51292;-57
2023/04/08 08:48:07;;;;;;;;;26.50;25.50;;;;;-147.17;100.00;44342.53;4987695;28;53048;-57
2023/04/08 08:50:34;;;;;;;;;16.33;15.67;;;;;-147.17;100.00;43959.25;4991978;28;51466;-58
2023/04/08 08:53:00;;;;;;;;;21.75;19.00;;;;;-147.17;100.00;43782.38;4990913;28;51092;-57
2023/04/08 08:55:26;;;;;;;;;19.50;18.50;;;;;-147.17;100.00;43456.16;4985308;28;51246;-57
2023/04/08 08:57:51;;;;;;;;;18.75;16.00;;;;;-147.17;100.00;42947.22;4987929;28;52773;-57
2023/04/08 09:00:17;;;;;;;;;15.25;15.25;;;;;-147.17;100.00;42725.19;4992418;28;50941;-58
2023/04/08 09:02:42;;;;;;;;;21.00;18.25;;;;;-147.17;100.00;42503.19;4989705;28;51179;-57
2023/04/08 09:05:08;;;;;;;;;16.00;16.00;;;;;-147.17;100.00;42579.81;4979128;28;51175;-56
2023/04/08 09:07:39;;;;;;;;;17.00;16.00;;;;;-147.17;100.00;42461.94;4991656;28;53582;-57
2023/04/08 09:10:05;;;;;;;;;18.50;17.50;;;;;-147.17;100.00;42611.25;4995760;28;51020;-56
2023/04/08 09:12:31;;;;;;;;;16.75;16.25;;;;;-147.17;100.00;42473.72;4990663;28;51125;-57
2023/04/08 09:15:07;;;;;;;;;13.67;13.67;;;;;-147.17;100.00;42222.25;4989438;28;51183;-57
2023/04/08 09:17:37;;;;;;;;;11.33;11.33;;;;;-147.17;100.00;42080.81;4992582;28;52087;-57
2023/04/08 09:20:11;;;;;;;;;16.75;15.25;;;;;-147.17;100.00;41797.94;4975711;28;51148;-57
2023/04/08 09:22:59;;;;;;;;;16.50;16.00;;;;;-147.17;100.00;41699.72;4980443;28;51011;-57
2023/04/08 09:25:32;;;;;;;;;15.00;15.00;;;;;-147.17;100.00;41856.88;4975838;28;51108;-58
2023/04/08 09:27:58;;;;;;;;;15.75;15.75;;;;;-147.17;100.00;43145.69;4984935;28;51806;-57
2023/04/08 09:30:25;;;;;;;;;14.50;14.00;;;;;-147.17;100.00;43434.53;4993677;28;51032;-57
2023/04/08 09:32:52;;;;;;;;;13.25;13.25;;;;;-147.17;100.00;43316.63;4986523;28;51189;-57
2023/04/08 09:35:19;;;;;;;;;13.00;13.00;;;;;-147.17;100.00;42737.00;4987980;28;51399;-57
2023/04/08 09:37:45;;;;;;;;;16.00;16.00;;;;;-147.17;100.00;42756.63;5001069;28;53193;-57
2023/04/08 09:40:11;;;;;;;;;14.75;14.75;;;;;-147.17;100.00;43436.50;4975514;28;51134;-57
2023/04/08 09:42:40;;;;;;;;;13.00;12.75;;;;;-147.17;100.00;43436.50;4985899;28;51155;-57
2023/04/08 09:45:09;;;;;;;;;18.50;18.00;;;;;-147.17;100.00;42742.88;4982765;28;50989;-58
2023/04/08 09:47:46;;;;;;;;;16.00;16.00;;;;;-147.17;100.00;41921.69;4988230;28;51174;-59
2023/04/08 09:50:12;;;;;;;;;18.00;15.33;;;;;-147.17;100.00;41226.38;4994606;28;51041;-57
2023/04/08 09:52:46;;;;;;;;;20.50;17.00;;;;;-147.17;100.00;40101.16;4991880;28;51089;-58
2023/04/08 09:55:20;;;;;;;;;16.00;16.00;;;;;-147.17;100.00;39298.19;4986239;28;51066;-58
2023/04/08 09:57:54;;;;;;;;;16.00;15.00;;;;;-147.17;100.00;39335.50;4994453;28;51244;-57
2023/04/08 10:00:23;;;;;;;;;16.00;15.00;;;;;-147.17;100.00;39115.63;4985147;28;51182;-58
2023/04/08 10:02:59;;;;;;;;;10.67;10.67;;;;;-147.17;100.00;39647.63;4986456;28;51012;-57
2023/04/08 10:05:26;;;;;;;;;14.67;14.33;;;;;-147.17;100.00;39834.16;4975084;28;51414;-58
2023/04/08 10:07:51;;;;;;;;;13.33;13.33;;;;;-147.17;100.00;39480.75;4974187;28;52069;-58
2023/04/08 10:10:18;;;;;;;;;13.67;13.33;;;;;-147.17;100.00;39139.19;4983300;28;51209;-56
2023/04/08 10:12:43;;;;;;;;;15.00;14.00;;;;;-147.17;100.00;38642.59;4989403;28;51268;-57
2023/04/08 10:15:22;;;;;;;;;17.00;15.67;;;;;-147.17;100.00;39463.09;4990221;28;51210;-58
2023/04/08 10:17:48;;;;;;;;;15.33;14.33;;;;;-147.17;100.00;39651.56;4981116;28;51793;-57
2023/04/08 10:20:49;;;;;;;;;12.67;12.00;;;;;-147.17;100.00;38937.00;4992495;28;51166;-57
2023/04/08 10:23:16;;;;;;;;;15.33;15.00;;;;;-147.17;100.00;38330.53;4934916;28;51284;-56
2023/04/08 10:25:42;;;;;;;;;21.25;21.25;;;;;-147.17;100.00;37732.00;4985122;28;51372;-57
2023/04/08 10:28:10;;;;;;;;;15.33;15.00;;;;;-147.17;100.00;37011.91;4993162;28;51413;-55
2023/04/08 10:30:40;;;;;;;;;13.00;13.00;;;;;-147.17;100.00;37420.00;4991618;28;50934;-56
2023/04/08 10:33:12;;;;;;;;;15.25;15.25;;;;;-147.17;100.00;38175.50;4980756;28;51069;-56
2023/04/08 10:35:41;;;;;;;;;13.33;13.33;;;;;-147.17;100.00;37596.59;4991491;28;51086;-55
2023/04/08 10:38:07;;;;;;;;;14.00;13.33;;;;;-147.17;100.00;37321.91;4982014;28;51889;-57
2023/04/08 10:40:41;;;;;;;;;12.33;12.33;;;;;-147.17;100.00;36864.78;4985451;28;51140;-56
2023/04/08 10:43:16;;;;;;;;;14.67;14.00;;;;;-147.17;100.00;36223.31;4987027;28;51148;-55
2023/04/08 10:45:43;;;;;;;;;13.67;13.00;;;;;-147.17;100.00;35297.59;4985193;28;51236;-55
2023/04/08 10:48:12;;;;;;;;;12.00;11.67;;;;;-147.17;100.00;35487.81;4986157;28;52006;-56
2023/04/08 10:50:37;;;;;;;;;13.67;13.00;;;;;-147.17;100.00;35077.97;4991187;28;51346;-55
2023/04/08 10:53:03;;;;;;;;;12.67;11.67;;;;;-147.17;100.00;35766.31;4986503;28;50974;-54